Time;durP1;ratioP1;P1;durP2;ratioP2;P2;SDS_P1;SDS_P2;PMS_P1;PMS_P2;Temp;Humidity;BMP_temperature;BMP_pressure;BME280_temperature;BME280_humidity;BME280_pressure;Samples;Min_cycle;Max_cycle;Signal;HPM_P1;HPM_P2
2020/12/19 00:00:06;;;;;;;9.67;8.77;;;;;;;;;;2070192;28;20642;-60
2020/12/19 00:01:07;;;;;;;11.20;10.10;;;;;;;;;;2073658;28;20269;-59
2020/12/19 00:02:07;;;;;;;12.43;10.13;;;;;;;;;;2071395;28;20692;-58
2020/12/19 00:03:07;;;;;;;10.70;9.60;;;;;;;;;;2077933;28;20204;-62
2020/12/19 00:04:08;;;;;;;10.13;9.13;;;;;;;;;;2080294;28;20629;-61
2020/12/19 00:05:08;;;;;;;12.80;9.97;;;;;;;;;;2080319;28;20173;-61
2020/12/19 00:06:08;;;;;;;10.93;9.80;;;;;;;;;;2072982;28;20181;-61
2020/12/19 00:07:09;;;;;;;11.60;9.40;;;;;;;;;;2063324;28;20166;-61
2020/12/19 00:08:09;;;;;;;10.53;9.43;;;;;;;;;;2072455;28;20164;-61
2020/12/19 00:09:10;;;;;;;11.13;9.93;;;;;;;;;;2070980;28;20197;-60
2020/12/19 00:10:10;;;;;;;10.73;9.57;;;;;;;;;;2069547;28;20174;-58
2020/12/19 00:11:10;;;;;;;10.80;9.70;;;;;;;;;;2072188;28;20225;-60
2020/12/19 00:12:11;;;;;;;10.87;9.80;;;;;;;;;;2062762;28;20188;-61
2020/12/19 00:13:11;;;;;;;10.60;9.50;;;;;;;;;;2067203;28;20685;-59
2020/12/19 00:14:11;;;;;;;12.30;9.97;;;;;;;;;;2070632;28;20189;-57
2020/12/19 00:15:15;;;;;;;10.50;9.33;;;;;;;;;;2069362;28;20177;-61
2020/12/19 00:16:16;;;;;;;10.60;9.27;;;;;;;;;;2073901;28;20181;-60
2020/12/19 00:17:16;;;;;;;11.17;9.90;;;;;;;;;;2063297;28;20260;-59
2020/12/19 00:18:16;;;;;;;11.10;9.83;;;;;;;;;;2061929;28;20182;-60
2020/12/19 00:19:17;;;;;;;11.00;9.93;;;;;;;;;;2071444;28;20257;-62
2020/12/19 00:20:17;;;;;;;10.33;9.30;;;;;;;;;;2080682;28;20181;-62
2020/12/19 00:21:17;;;;;;;10.43;9.37;;;;;;;;;;2064887;28;20178;-61
2020/12/19 00:22:21;;;;;;;10.53;9.53;;;;;;;;;;2064440;28;20233;-60
2020/12/19 00:23:21;;;;;;;10.93;9.93;;;;;;;;;;2065135;28;20170;-60
2020/12/19 00:24:21;;;;;;;11.80;9.70;;;;;;;;;;2060817;28;20250;-61
2020/12/19 00:25:22;;;;;;;10.17;9.17;;;;;;;;;;2063028;28;20309;-62
2020/12/19 00:26:22;;;;;;;10.57;9.07;;;;;;;;;;2070278;28;20166;-60
2020/12/19 00:27:22;;;;;;;10.13;9.07;;;;;;;;;;2067006;28;20184;-61
2020/12/19 00:28:22;;;;;;;9.80;8.80;;;;;;;;;;2065510;28;20224;-61
2020/12/19 00:29:23;;;;;;;10.67;9.57;;;;;;;;;;2068825;28;20184;-56
2020/12/19 00:30:23;;;;;;;10.50;8.87;;;;;;;;;;2076423;28;20180;-59
2020/12/19 00:31:23;;;;;;;9.53;8.60;;;;;;;;;;2077082;28;20161;-62
2020/12/19 00:32:24;;;;;;;10.20;9.27;;;;;;;;;;2068760;28;20188;-62
2020/12/19 00:33:24;;;;;;;10.30;9.03;;;;;;;;;;2068427;28;20209;-62
2020/12/19 00:34:24;;;;;;;10.80;9.57;;;;;;;;;;2068514;28;20798;-62
2020/12/19 00:35:25;;;;;;;11.47;9.67;;;;;;;;;;2060345;28;20216;-61
2020/12/19 00:36:25;;;;;;;10.37;9.27;;;;;;;;;;2068840;28;20178;-59
2020/12/19 00:37:26;;;;;;;10.80;9.70;;;;;;;;;;2070041;28;20174;-61
2020/12/19 00:38:26;;;;;;;9.70;8.80;;;;;;;;;;2061598;28;20194;-61
2020/12/19 00:39:27;;;;;;;11.60;9.10;;;;;;;;;;2064901;28;20182;-62
2020/12/19 00:40:27;;;;;;;13.10;9.40;;;;;;;;;;2090134;22;20227;-59
2020/12/19 00:41:27;;;;;;;10.40;9.30;;;;;;;;;;2068475;28;20669;-61
2020/12/19 00:42:27;;;;;;;10.93;9.20;;;;;;;;;;2072272;28;20658;-56
2020/12/19 00:43:28;;;;;;;11.37;8.83;;;;;;;;;;2079746;28;20187;-63
2020/12/19 00:44:28;;;;;;;14.03;10.87;;;;;;;;;;2079581;28;20168;-62
2020/12/19 00:45:29;;;;;;;11.47;10.27;;;;;;;;;;2080359;28;20255;-63
2020/12/19 00:46:29;;;;;;;12.43;9.60;;;;;;;;;;2080954;28;20184;-63
2020/12/19 00:47:30;;;;;;;10.67;9.57;;;;;;;;;;2080762;28;20168;-62
2020/12/19 00:48:30;;;;;;;10.80;9.70;;;;;;;;;;2081507;28;20657;-63
2020/12/19 00:49:30;;;;;;;10.40;9.40;;;;;;;;;;2081534;28;20199;-63
2020/12/19 00:50:30;;;;;;;10.40;9.30;;;;;;;;;;2081267;28;20306;-60
2020/12/19 00:51:31;;;;;;;12.70;10.57;;;;;;;;;;2081687;28;20262;-61
2020/12/19 00:52:31;;;;;;;10.13;9.03;;;;;;;;;;2081884;28;20222;-63
2020/12/19 00:53:31;;;;;;;11.90;9.80;;;;;;;;;;2081266;28;20225;-61
2020/12/19 00:54:31;;;;;;;16.10;12.93;;;;;;;;;;2081669;28;20242;-66
2020/12/19 00:55:32;;;;;;;10.67;9.57;;;;;;;;;;2081467;28;20180;-61
2020/12/19 00:56:32;;;;;;;11.40;10.07;;;;;;;;;;2080253;28;20567;-62
2020/12/19 00:57:32;;;;;;;11.23;9.77;;;;;;;;;;2079966;28;20640;-59
2020/12/19 00:58:33;;;;;;;12.00;9.50;;;;;;;;;;2081398;28;20718;-62
2020/12/19 00:59:33;;;;;;;10.67;9.57;;;;;;;;;;2081452;28;20192;-62
2020/12/19 01:00:33;;;;;;;11.30;10.10;;;;;;;;;;2080805;28;20192;-61
2020/12/19 01:01:33;;;;;;;12.43;8.93;;;;;;;;;;2081513;28;20204;-62
2020/12/19 01:02:37;;;;;;;10.83;9.73;;;;;;;;;;2081962;28;20184;-61
2020/12/19 01:03:37;;;;;;;11.47;9.80;;;;;;;;;;2081863;28;20176;-62
2020/12/19 01:04:37;;;;;;;10.67;9.50;;;;;;;;;;2081528;28;20267;-62
2020/12/19 01:05:38;;;;;;;10.17;9.13;;;;;;;;;;2081161;28;20184;-61
2020/12/19 01:06:38;;;;;;;11.17;10.03;;;;;;;;;;2081041;28;20176;-60
2020/12/19 01:07:39;;;;;;;10.07;9.07;;;;;;;;;;2080774;28;20683;-62
2020/12/19 01:08:39;;;;;;;10.60;9.57;;;;;;;;;;2081298;28;20222;-61
2020/12/19 01:09:39;;;;;;;10.90;9.73;;;;;;;;;;2081781;28;20206;-61
2020/12/19 01:10:39;;;;;;;11.07;9.97;;;;;;;;;;2082019;28;20195;-62
2020/12/19 01:11:40;;;;;;;11.43;9.33;;;;;;;;;;2081925;28;20284;-62
2020/12/19 01:12:40;;;;;;;9.80;8.80;;;;;;;;;;2081862;28;20183;-62
2020/12/19 01:13:41;;;;;;;10.97;9.73;;;;;;;;;;2082000;28;20207;-63
2020/12/19 01:14:41;;;;;;;9.97;8.97;;;;;;;;;;2080564;28;20168;-62
2020/12/19 01:15:41;;;;;;;10.37;9.37;;;;;;;;;;2080909;28;20286;-62
2020/12/19 01:16:41;;;;;;;11.03;9.07;;;;;;;;;;2081864;28;20171;-63
2020/12/19 01:17:42;;;;;;;10.63;9.53;;;;;;;;;;2081108;28;20168;-63
2020/12/19 01:18:43;;;;;;;10.87;9.77;;;;;;;;;;2081864;28;20183;-62
2020/12/19 01:19:43;;;;;;;11.23;9.97;;;;;;;;;;2081875;28;20180;-63
2020/12/19 01:20:43;;;;;;;11.70;9.63;;;;;;;;;;2081215;28;20203;-63
2020/12/19 01:21:44;;;;;;;12.77;9.33;;;;;;;;;;2081074;28;20263;-63
2020/12/19 01:22:44;;;;;;;9.97;8.97;;;;;;;;;;2089223;28;20700;-62
2020/12/19 01:23:45;;;;;;;10.97;9.83;;;;;;;;;;2089381;28;20255;-62
2020/12/19 01:24:46;;;;;;;12.50;9.37;;;;;;;;;;2081379;28;20173;-63
2020/12/19 01:25:46;;;;;;;10.43;8.77;;;;;;;;;;2081152;28;20234;-63
2020/12/19 01:26:47;;;;;;;11.43;9.43;;;;;;;;;;2080971;28;20185;-63
2020/12/19 01:27:47;;;;;;;10.87;9.73;;;;;;;;;;2081033;28;20172;-63
2020/12/19 01:28:48;;;;;;;12.83;9.27;;;;;;;;;;2078268;28;20659;-63
2020/12/19 01:29:48;;;;;;;12.70;9.87;;;;;;;;;;2081215;28;20216;-63
2020/12/19 01:30:48;;;;;;;10.53;9.43;;;;;;;;;;2074227;28;20233;-62
2020/12/19 01:31:48;;;;;;;10.27;8.90;;;;;;;;;;2081868;28;20168;-62
2020/12/19 01:32:50;;;;;;;10.50;9.40;;;;;;;;;;2081175;28;20176;-62
2020/12/19 01:33:50;;;;;;;12.20;10.23;;;;;;;;;;2080976;28;20175;-63
2020/12/19 01:34:51;;;;;;;12.80;9.30;;;;;;;;;;2081043;28;20186;-63
2020/12/19 01:35:51;;;;;;;11.00;9.63;;;;;;;;;;2081369;28;20184;-63
2020/12/19 01:36:51;;;;;;;11.23;10.03;;;;;;;;;;2081808;28;20164;-62
2020/12/19 01:37:51;;;;;;;12.47;10.67;;;;;;;;;;2080265;28;20243;-63
2020/12/19 01:38:52;;;;;;;11.63;10.07;;;;;;;;;;2080276;28;20203;-63
2020/12/19 01:39:52;;;;;;;12.13;10.47;;;;;;;;;;2080951;28;20176;-62
2020/12/19 01:40:53;;;;;;;14.57;9.30;;;;;;;;;;2055662;28;752881;-62
2020/12/19 01:41:53;;;;;;;12.40;10.20;;;;;;;;;;2082091;28;20546;-63
2020/12/19 01:42:54;;;;;;;11.27;10.17;;;;;;;;;;2082131;28;20295;-62
2020/12/19 01:43:55;;;;;;;12.40;9.60;;;;;;;;;;2081105;28;20184;-62
2020/12/19 01:44:56;;;;;;;11.53;10.23;;;;;;;;;;2081449;28;20208;-62
2020/12/19 01:45:56;;;;;;;12.10;10.00;;;;;;;;;;2082062;28;20179;-62
2020/12/19 01:46:59;;;;;;;10.13;9.10;;;;;;;;;;2082027;28;20188;-62
2020/12/19 01:48:06;;;;;;;13.10;10.17;;;;;;;;;;2081597;28;20191;-62
2020/12/19 01:49:06;;;;;;;11.80;9.43;;;;;;;;;;2081978;28;20172;-63
2020/12/19 01:50:07;;;;;;;14.60;10.57;;;;;;;;;;2081781;28;20208;-62
2020/12/19 01:51:07;;;;;;;11.73;9.10;;;;;;;;;;2082059;28;20171;-63
2020/12/19 01:52:07;;;;;;;11.00;9.77;;;;;;;;;;2082033;28;20172;-62
2020/12/19 01:53:07;;;;;;;12.70;11.10;;;;;;;;;;2082482;28;20184;-63
2020/12/19 01:54:08;;;;;;;10.70;9.33;;;;;;;;;;2082064;28;20236;-62
2020/12/19 01:55:08;;;;;;;12.80;10.40;;;;;;;;;;2082271;28;20254;-61
2020/12/19 01:56:09;;;;;;;13.67;9.73;;;;;;;;;;2081432;28;20223;-62
2020/12/19 01:57:09;;;;;;;12.23;10.50;;;;;;;;;;2080805;28;20247;-63
2020/12/19 01:58:10;;;;;;;11.67;9.53;;;;;;;;;;2080946;28;20227;-62
2020/12/19 01:59:13;;;;;;;11.80;10.27;;;;;;;;;;2081391;28;20633;-62
2020/12/19 02:00:13;;;;;;;11.30;10.10;;;;;;;;;;2079177;28;20203;-62
2020/12/19 02:01:15;;;;;;;12.37;10.57;;;;;;;;;;2077634;28;20181;-62
2020/12/19 02:02:16;;;;;;;11.23;9.80;;;;;;;;;;2080964;28;20254;-62
2020/12/19 02:03:16;;;;;;;11.47;9.23;;;;;;;;;;2082161;28;20165;-63
2020/12/19 02:04:17;;;;;;;15.70;10.77;;;;;;;;;;2080350;28;20176;-63
2020/12/19 02:05:17;;;;;;;13.60;9.67;;;;;;;;;;2080888;28;20540;-63
2020/12/19 02:06:18;;;;;;;13.30;11.27;;;;;;;;;;2081710;28;20271;-63
2020/12/19 02:07:18;;;;;;;12.87;10.00;;;;;;;;;;2082203;28;20628;-63
2020/12/19 02:08:19;;;;;;;11.53;9.17;;;;;;;;;;2081648;28;20187;-63
2020/12/19 02:09:20;;;;;;;12.73;10.50;;;;;;;;;;2081183;28;20258;-62
2020/12/19 02:10:20;;;;;;;14.03;9.57;;;;;;;;;;2080478;28;20246;-63
2020/12/19 02:11:21;;;;;;;10.70;9.17;;;;;;;;;;2081257;28;20168;-62
2020/12/19 02:12:21;;;;;;;13.00;9.73;;;;;;;;;;2081071;28;20630;-62
2020/12/19 02:13:22;;;;;;;13.13;9.77;;;;;;;;;;2081784;28;20169;-60
2020/12/19 02:14:22;;;;;;;11.03;9.90;;;;;;;;;;2081795;28;20187;-60
2020/12/19 02:15:22;;;;;;;12.80;9.93;;;;;;;;;;2081470;28;20196;-62
2020/12/19 02:16:22;;;;;;;10.63;9.53;;;;;;;;;;2080960;28;20637;-62
2020/12/19 02:17:23;;;;;;;12.40;9.50;;;;;;;;;;2081317;28;20645;-62
2020/12/19 02:18:23;;;;;;;10.57;9.50;;;;;;;;;;2081128;28;20195;-61
2020/12/19 02:19:23;;;;;;;11.13;9.93;;;;;;;;;;2081199;28;20172;-61
2020/12/19 02:20:24;;;;;;;11.63;9.30;;;;;;;;;;2077658;28;20283;-61
2020/12/19 02:21:24;;;;;;;11.00;9.90;;;;;;;;;;2078949;28;20180;-60
2020/12/19 02:22:24;;;;;;;10.40;8.87;;;;;;;;;;2081752;28;20187;-62
2020/12/19 02:23:24;;;;;;;10.43;9.20;;;;;;;;;;2081736;28;20176;-61
2020/12/19 02:24:25;;;;;;;11.23;9.53;;;;;;;;;;2081061;28;20207;-62
2020/12/19 02:25:28;;;;;;;11.83;9.97;;;;;;;;;;2079122;28;20723;-61
2020/12/19 02:26:29;;;;;;;11.13;9.50;;;;;;;;;;2079943;28;20176;-59
2020/12/19 02:27:29;;;;;;;12.07;10.03;;;;;;;;;;2078797;28;20160;-62
2020/12/19 02:28:29;;;;;;;11.77;10.10;;;;;;;;;;2072466;28;20184;-62
2020/12/19 02:29:31;;;;;;;10.77;9.40;;;;;;;;;;2080488;28;20628;-62
2020/12/19 02:30:32;;;;;;;12.90;9.50;;;;;;;;;;2078506;28;20196;-62
2020/12/19 02:31:32;;;;;;;11.10;9.77;;;;;;;;;;2080428;28;20184;-63
2020/12/19 02:32:32;;;;;;;11.40;10.23;;;;;;;;;;2078019;28;20187;-63
2020/12/19 02:33:32;;;;;;;12.43;10.07;;;;;;;;;;2079636;28;20761;-61
2020/12/19 02:34:33;;;;;;;12.27;10.27;;;;;;;;;;2080990;28;20180;-59
2020/12/19 02:35:34;;;;;;;13.63;11.07;;;;;;;;;;2081337;28;20183;-62
2020/12/19 02:36:35;;;;;;;10.73;9.63;;;;;;;;;;2081537;28;20184;-62
2020/12/19 02:37:35;;;;;;;11.03;9.87;;;;;;;;;;2080821;28;20263;-65
2020/12/19 02:38:35;;;;;;;12.60;10.47;;;;;;;;;;2081873;28;20183;-61
2020/12/19 02:39:36;;;;;;;9.97;8.97;;;;;;;;;;2081406;28;20191;-62
2020/12/19 02:40:36;;;;;;;10.70;9.60;;;;;;;;;;2080866;28;20212;-62
2020/12/19 02:41:40;;;;;;;14.93;9.37;;;;;;;;;;2082009;28;20263;-61
2020/12/19 02:42:42;;;;;;;11.73;9.97;;;;;;;;;;2082005;28;20176;-61
2020/12/19 02:43:42;;;;;;;12.00;10.67;;;;;;;;;;2079877;28;20180;-61
2020/12/19 02:44:42;;;;;;;11.57;9.53;;;;;;;;;;2083755;28;20211;-62
2020/12/19 02:45:42;;;;;;;12.23;9.67;;;;;;;;;;2084460;28;20236;-63
2020/12/19 02:46:43;;;;;;;10.53;9.43;;;;;;;;;;2083824;28;20663;-63
2020/12/19 02:47:43;;;;;;;12.03;9.90;;;;;;;;;;2076544;28;20195;-62
2020/12/19 02:48:43;;;;;;;11.60;9.80;;;;;;;;;;2083891;28;20671;-62
2020/12/19 02:49:43;;;;;;;12.60;10.07;;;;;;;;;;2084472;28;20219;-62
2020/12/19 02:50:44;;;;;;;12.13;10.83;;;;;;;;;;2083819;28;20680;-62
2020/12/19 02:51:44;;;;;;;13.80;10.30;;;;;;;;;;2085175;28;20256;-62
2020/12/19 02:52:44;;;;;;;11.93;10.57;;;;;;;;;;2086028;28;20190;-62
2020/12/19 02:53:44;;;;;;;12.13;9.70;;;;;;;;;;2085300;28;20172;-62
2020/12/19 02:54:45;;;;;;;12.73;10.40;;;;;;;;;;2083723;28;20172;-62
2020/12/19 02:55:45;;;;;;;12.43;10.90;;;;;;;;;;2084549;28;20238;-62
2020/12/19 02:56:45;;;;;;;11.37;10.23;;;;;;;;;;2083858;28;20176;-62
2020/12/19 02:57:45;;;;;;;15.47;11.23;;;;;;;;;;2083647;28;20216;-62
2020/12/19 02:58:45;;;;;;;14.00;11.37;;;;;;;;;;2084048;28;20178;-62
2020/12/19 02:59:46;;;;;;;15.10;12.03;;;;;;;;;;2083397;28;20171;-62
2020/12/19 03:00:46;;;;;;;14.13;11.20;;;;;;;;;;2082738;28;20195;-62
2020/12/19 03:01:46;;;;;;;14.30;11.27;;;;;;;;;;2084930;28;20214;-61
2020/12/19 03:02:46;;;;;;;14.10;10.13;;;;;;;;;;2085212;28;20176;-62
2020/12/19 03:03:47;;;;;;;12.77;11.03;;;;;;;;;;2085314;28;20188;-63
2020/12/19 03:04:47;;;;;;;15.00;11.27;;;;;;;;;;2083657;28;20176;-61
2020/12/19 03:05:47;;;;;;;13.77;10.87;;;;;;;;;;2084973;28;20243;-63
2020/12/19 03:06:47;;;;;;;16.70;11.13;;;;;;;;;;2084611;28;20218;-62
2020/12/19 03:07:47;;;;;;;11.33;10.13;;;;;;;;;;2084878;28;20172;-63
2020/12/19 03:08:48;;;;;;;13.80;10.93;;;;;;;;;;2085877;28;20196;-62
2020/12/19 03:09:48;;;;;;;17.20;11.53;;;;;;;;;;2083469;28;20212;-62
2020/12/19 03:10:48;;;;;;;12.97;10.27;;;;;;;;;;2087042;28;20191;-62
2020/12/19 03:11:49;;;;;;;12.63;10.37;;;;;;;;;;2086504;28;20172;-62
2020/12/19 03:12:49;;;;;;;13.10;11.10;;;;;;;;;;2086299;28;20188;-63
2020/12/19 03:13:49;;;;;;;13.47;10.63;;;;;;;;;;2086908;28;20590;-62
2020/12/19 03:14:49;;;;;;;13.00;10.50;;;;;;;;;;2086003;28;20210;-62
2020/12/19 03:15:49;;;;;;;11.23;10.03;;;;;;;;;;2085269;28;20173;-62
2020/12/19 03:16:50;;;;;;;13.60;11.30;;;;;;;;;;2083733;28;20215;-62
2020/12/19 03:17:50;;;;;;;13.27;10.57;;;;;;;;;;2084181;28;20183;-63
2020/12/19 03:18:50;;;;;;;11.47;10.27;;;;;;;;;;2086380;28;20168;-62
2020/12/19 03:19:51;;;;;;;12.90;10.03;;;;;;;;;;2084221;28;20643;-62
2020/12/19 03:20:51;;;;;;;13.77;10.97;;;;;;;;;;2081208;28;20213;-63
2020/12/19 03:21:51;;;;;;;11.20;9.83;;;;;;;;;;2080476;28;20203;-63
2020/12/19 03:22:51;;;;;;;12.20;10.93;;;;;;;;;;2081246;28;20303;-62
2020/12/19 03:23:52;;;;;;;15.13;10.93;;;;;;;;;;2081217;28;20566;-63
2020/12/19 03:24:52;;;;;;;14.43;9.90;;;;;;;;;;2081486;28;20241;-63
2020/12/19 03:25:52;;;;;;;11.17;9.97;;;;;;;;;;2081256;28;20172;-64
2020/12/19 03:26:52;;;;;;;14.80;11.13;;;;;;;;;;2080693;28;20188;-63
2020/12/19 03:27:53;;;;;;;14.53;10.20;;;;;;;;;;2079640;28;20274;-62
2020/12/19 03:28:53;;;;;;;12.13;10.93;;;;;;;;;;2081144;28;20206;-62
2020/12/19 03:29:53;;;;;;;12.77;11.43;;;;;;;;;;2081003;28;20765;-62
2020/12/19 03:30:54;;;;;;;11.40;10.23;;;;;;;;;;2081371;28;20593;-62
2020/12/19 03:31:54;;;;;;;12.80;11.47;;;;;;;;;;2081062;28;20166;-62
2020/12/19 03:32:54;;;;;;;12.53;11.23;;;;;;;;;;2081434;28;20553;-63
2020/12/19 03:33:55;;;;;;;12.80;11.30;;;;;;;;;;2080546;28;20225;-62
2020/12/19 03:34:55;;;;;;;12.60;10.27;;;;;;;;;;2080611;28;20180;-62
2020/12/19 03:35:55;;;;;;;16.33;11.57;;;;;;;;;;2081006;28;20310;-62
2020/12/19 03:36:55;;;;;;;16.10;10.73;;;;;;;;;;2081162;28;20192;-62
2020/12/19 03:37:55;;;;;;;12.37;11.00;;;;;;;;;;2080894;28;20664;-62
2020/12/19 03:38:56;;;;;;;13.67;10.50;;;;;;;;;;2081108;28;20671;-62
2020/12/19 03:39:56;;;;;;;17.37;11.53;;;;;;;;;;2081198;28;20546;-60
2020/12/19 03:40:56;;;;;;;15.30;13.00;;;;;;;;;;2078497;28;20188;-62
2020/12/19 03:41:56;;;;;;;14.00;11.93;;;;;;;;;;2075198;28;20412;-62
2020/12/19 03:42:57;;;;;;;14.50;11.57;;;;;;;;;;2080539;28;20677;-62
2020/12/19 03:43:57;;;;;;;14.87;12.33;;;;;;;;;;2080279;28;20521;-62
2020/12/19 03:44:57;;;;;;;15.13;12.37;;;;;;;;;;2080770;28;20597;-62
2020/12/19 03:45:57;;;;;;;17.27;13.33;;;;;;;;;;2079912;28;20681;-63
2020/12/19 03:46:58;;;;;;;14.37;12.13;;;;;;;;;;2081084;28;20272;-61
2020/12/19 03:47:58;;;;;;;15.50;11.97;;;;;;;;;;2079929;28;20200;-63
2020/12/19 03:48:58;;;;;;;13.37;11.40;;;;;;;;;;2080390;28;20176;-63
2020/12/19 03:49:59;;;;;;;12.37;10.73;;;;;;;;;;2080978;28;20196;-65
2020/12/19 03:50:59;;;;;;;15.80;12.47;;;;;;;;;;2082264;28;20542;-63
2020/12/19 03:51:59;;;;;;;14.97;11.60;;;;;;;;;;2083012;28;20599;-63
2020/12/19 03:52:59;;;;;;;15.17;11.60;;;;;;;;;;2082739;28;20173;-61
2020/12/19 03:54:00;;;;;;;17.20;12.50;;;;;;;;;;2082030;28;20226;-60
2020/12/19 03:55:00;;;;;;;14.53;11.50;;;;;;;;;;2082402;28;20181;-61
2020/12/19 03:56:00;;;;;;;14.40;12.67;;;;;;;;;;2082473;28;20176;-61
2020/12/19 03:57:01;;;;;;;15.90;11.83;;;;;;;;;;2077692;28;20559;-58
2020/12/19 03:58:01;;;;;;;14.97;12.53;;;;;;;;;;2080979;28;20203;-61
2020/12/19 03:59:01;;;;;;;17.53;12.93;;;;;;;;;;2081382;28;20168;-61
2020/12/19 04:00:03;;;;;;;15.40;11.70;;;;;;;;;;2082581;28;20258;-61
2020/12/19 04:01:12;;;;;;;15.47;12.33;;;;;;;;;;2082099;28;20604;-61
2020/12/19 04:02:12;;;;;;;15.90;12.13;;;;;;;;;;2082694;28;20180;-61
2020/12/19 04:03:12;;;;;;;16.77;12.37;;;;;;;;;;2081112;28;20188;-60
2020/12/19 04:04:13;;;;;;;16.90;12.50;;;;;;;;;;2083339;28;20194;-62
2020/12/19 04:05:13;;;;;;;16.20;13.07;;;;;;;;;;2083997;28;20649;-62
2020/12/19 04:06:13;;;;;;;16.00;12.97;;;;;;;;;;2083762;28;20539;-62
2020/12/19 04:07:13;;;;;;;16.73;12.53;;;;;;;;;;2082565;28;20223;-61
2020/12/19 04:08:14;;;;;;;17.37;13.43;;;;;;;;;;2083705;28;20201;-61
2020/12/19 04:09:14;;;;;;;15.10;13.40;;;;;;;;;;2082503;28;20544;-61
2020/12/19 04:10:14;;;;;;;17.37;14.60;;;;;;;;;;2082722;28;20313;-63
2020/12/19 04:11:14;;;;;;;16.40;13.40;;;;;;;;;;2082723;28;20184;-62
2020/12/19 04:12:16;;;;;;;15.57;12.23;;;;;;;;;;2083936;28;20207;-61
2020/12/19 04:13:16;;;;;;;14.77;13.27;;;;;;;;;;2080911;28;20180;-61
2020/12/19 04:14:16;;;;;;;13.80;11.40;;;;;;;;;;2082643;28;20181;-61
2020/12/19 04:15:22;;;;;;;15.97;12.53;;;;;;;;;;2081438;28;20187;-62
2020/12/19 04:16:23;;;;;;;14.87;12.60;;;;;;;;;;2081948;28;20168;-62
2020/12/19 04:17:23;;;;;;;15.87;13.40;;;;;;;;;;2081901;28;20164;-62
2020/12/19 04:18:23;;;;;;;18.50;14.07;;;;;;;;;;2082414;28;20199;-62
2020/12/19 04:19:23;;;;;;;17.67;14.20;;;;;;;;;;2082092;28;20188;-62
2020/12/19 04:20:24;;;;;;;16.47;13.53;;;;;;;;;;2082427;28;20246;-61
2020/12/19 04:21:24;;;;;;;20.10;14.63;;;;;;;;;;2082808;28;20233;-62
2020/12/19 04:22:24;;;;;;;16.97;13.47;;;;;;;;;;2082585;28;20168;-62
2020/12/19 04:23:24;;;;;;;19.60;13.97;;;;;;;;;;2081660;28;20603;-62
2020/12/19 04:24:25;;;;;;;15.13;13.53;;;;;;;;;;2081188;28;20591;-62
2020/12/19 04:25:25;;;;;;;16.07;13.57;;;;;;;;;;2081370;28;20184;-62
2020/12/19 04:26:25;;;;;;;18.33;13.87;;;;;;;;;;2082547;28;20187;-62
2020/12/19 04:27:25;;;;;;;20.87;14.30;;;;;;;;;;2081876;28;20234;-63
2020/12/19 04:28:26;;;;;;;16.27;14.30;;;;;;;;;;2082511;28;20204;-61
2020/12/19 04:29:27;;;;;;;18.53;14.27;;;;;;;;;;2082686;28;20172;-62
2020/12/19 04:30:27;;;;;;;19.83;14.43;;;;;;;;;;2081841;28;20180;-62
2020/12/19 04:31:27;;;;;;;19.93;14.23;;;;;;;;;;2081841;28;20202;-62
2020/12/19 04:32:28;;;;;;;20.43;14.70;;;;;;;;;;2081983;28;20705;-62
2020/12/19 04:33:28;;;;;;;17.97;14.57;;;;;;;;;;2080019;28;20250;-62
2020/12/19 04:34:28;;;;;;;19.07;14.50;;;;;;;;;;2080381;28;20164;-62
2020/12/19 04:35:28;;;;;;;20.63;15.27;;;;;;;;;;2082725;28;20208;-62
2020/12/19 04:36:28;;;;;;;18.03;14.23;;;;;;;;;;2081700;28;20180;-62
2020/12/19 04:37:29;;;;;;;20.43;15.90;;;;;;;;;;2080657;28;20168;-62
2020/12/19 04:38:29;;;;;;;17.77;14.07;;;;;;;;;;2081451;28;20234;-62
2020/12/19 04:39:29;;;;;;;21.30;16.07;;;;;;;;;;2082485;28;20255;-62
2020/12/19 04:40:29;;;;;;;22.47;16.13;;;;;;;;;;2082260;28;20203;-62
2020/12/19 04:41:30;;;;;;;20.77;15.43;;;;;;;;;;2081125;28;20727;-62
2020/12/19 04:42:31;;;;;;;20.90;16.17;;;;;;;;;;2081395;28;20535;-62
2020/12/19 04:43:32;;;;;;;23.17;16.80;;;;;;;;;;2082528;28;20551;-62
2020/12/19 04:44:33;;;;;;;21.83;16.77;;;;;;;;;;2081168;28;20562;-62
2020/12/19 04:45:33;;;;;;;23.57;16.73;;;;;;;;;;2082501;28;20168;-62
2020/12/19 04:46:37;;;;;;;20.07;15.53;;;;;;;;;;2075985;28;20176;-62
2020/12/19 04:47:37;;;;;;;19.87;15.57;;;;;;;;;;2081277;28;20176;-62
2020/12/19 04:48:37;;;;;;;22.20;16.60;;;;;;;;;;2081391;28;20707;-62
2020/12/19 04:49:38;;;;;;;23.30;17.00;;;;;;;;;;2081014;28;20183;-62
2020/12/19 04:50:39;;;;;;;25.43;17.70;;;;;;;;;;2081642;28;20668;-62
2020/12/19 04:51:39;;;;;;;22.97;17.00;;;;;;;;;;2076433;28;20255;-62
2020/12/19 04:52:40;;;;;;;21.17;16.10;;;;;;;;;;2082055;28;20711;-62
2020/12/19 04:53:40;;;;;;;20.93;16.30;;;;;;;;;;2081057;28;20206;-62
2020/12/19 04:54:41;;;;;;;20.90;16.67;;;;;;;;;;2081668;28;20187;-62
2020/12/19 04:55:42;;;;;;;22.50;18.43;;;;;;;;;;2077568;28;20206;-62
2020/12/19 04:56:42;;;;;;;23.67;16.97;;;;;;;;;;2081271;28;20522;-62
2020/12/19 04:57:44;;;;;;;22.80;17.90;;;;;;;;;;2081204;28;20172;-62
2020/12/19 04:58:44;;;;;;;22.90;17.37;;;;;;;;;;2069949;28;20177;-62
2020/12/19 04:59:45;;;;;;;25.30;18.73;;;;;;;;;;2072820;28;20165;-61
2020/12/19 05:00:49;;;;;;;23.67;17.60;;;;;;;;;;2077054;28;20696;-62
2020/12/19 05:01:49;;;;;;;26.10;18.40;;;;;;;;;;2082222;28;20233;-62
2020/12/19 05:02:52;;;;;;;24.47;18.27;;;;;;;;;;2077402;28;20789;-61
2020/12/19 05:03:53;;;;;;;25.67;18.80;;;;;;;;;;2081656;28;20184;-61
2020/12/19 05:04:53;;;;;;;24.07;19.27;;;;;;;;;;2082012;28;20185;-61
2020/12/19 05:05:54;;;;;;;26.17;19.33;;;;;;;;;;2081407;28;20266;-61
2020/12/19 05:06:54;;;;;;;27.30;19.33;;;;;;;;;;2081057;28;20183;-62
2020/12/19 05:07:54;;;;;;;26.27;18.57;;;;;;;;;;2080630;28;20676;-62
2020/12/19 05:08:55;;;;;;;27.03;19.50;;;;;;;;;;2081553;28;20238;-62
2020/12/19 05:09:55;;;;;;;27.70;19.73;;;;;;;;;;2081530;28;20203;-61
2020/12/19 05:10:56;;;;;;;29.00;19.07;;;;;;;;;;2081920;28;20567;-62
2020/12/19 05:11:56;;;;;;;26.77;19.43;;;;;;;;;;2081160;28;20688;-61
2020/12/19 05:12:57;;;;;;;23.57;18.70;;;;;;;;;;2080850;28;20172;-61
2020/12/19 05:13:57;;;;;;;28.90;19.80;;;;;;;;;;2080813;28;20188;-62
2020/12/19 05:14:57;;;;;;;30.50;19.17;;;;;;;;;;2072214;28;20187;-62
2020/12/19 05:15:58;;;;;;;26.10;18.73;;;;;;;;;;2080047;28;20204;-62
2020/12/19 05:16:58;;;;;;;28.70;19.53;;;;;;;;;;2079931;28;20168;-59
2020/12/19 05:17:59;;;;;;;27.60;19.53;;;;;;;;;;2075822;28;20208;-62
2020/12/19 05:19:10;;;;;;;29.47;19.33;;;;;;;;;;2081095;28;20177;-62
2020/12/19 05:20:10;;;;;;;33.70;20.80;;;;;;;;;;2080148;28;20184;-62
2020/12/19 05:21:11;;;;;;;26.90;19.53;;;;;;;;;;2081083;28;20192;-62
2020/12/19 05:22:15;;;;;;;28.03;19.83;;;;;;;;;;2081350;28;20176;-64
2020/12/19 05:23:17;;;;;;;29.40;20.53;;;;;;;;;;2088480;28;20238;-62
2020/12/19 05:24:17;;;;;;;26.83;19.93;;;;;;;;;;2082031;28;20188;-62
2020/12/19 05:25:18;;;;;;;29.67;19.77;;;;;;;;;;2080841;28;20207;-62
2020/12/19 05:26:19;;;;;;;29.93;21.30;;;;;;;;;;2081279;28;20645;-62
2020/12/19 05:27:19;;;;;;;29.97;20.97;;;;;;;;;;2080620;28;20275;-62
2020/12/19 05:28:20;;;;;;;28.80;20.43;;;;;;;;;;2081285;28;20172;-61
2020/12/19 05:29:20;;;;;;;31.90;21.33;;;;;;;;;;2078665;28;20188;-62
2020/12/19 05:30:21;;;;;;;31.00;22.43;;;;;;;;;;2078512;28;20235;-58
2020/12/19 05:31:22;;;;;;;31.77;22.17;;;;;;;;;;2081501;28;20184;-61
2020/12/19 05:32:23;;;;;;;32.20;22.53;;;;;;;;;;2081057;28;20222;-61
2020/12/19 05:33:24;;;;;;;31.00;22.03;;;;;;;;;;2079549;28;20233;-61
2020/12/19 05:34:25;;;;;;;30.57;20.97;;;;;;;;;;2081175;28;20484;-61
2020/12/19 05:35:25;;;;;;;31.87;20.43;;;;;;;;;;2081650;28;20171;-61
2020/12/19 05:36:28;;;;;;;31.93;21.93;;;;;;;;;;2081210;28;20191;-61
2020/12/19 05:37:28;;;;;;;32.20;22.20;;;;;;;;;;2081294;28;20207;-61
2020/12/19 05:38:29;;;;;;;33.47;23.10;;;;;;;;;;2081403;28;20571;-61
2020/12/19 05:39:29;;;;;;;34.50;22.47;;;;;;;;;;2081785;28;20168;-61
2020/12/19 05:40:30;;;;;;;33.13;22.17;;;;;;;;;;2081138;28;20232;-61
2020/12/19 05:41:30;;;;;;;31.53;20.97;;;;;;;;;;2081980;28;20184;-62
2020/12/19 05:42:31;;;;;;;31.83;21.13;;;;;;;;;;2081157;28;20185;-61
2020/12/19 05:43:31;;;;;;;32.17;21.30;;;;;;;;;;2081214;28;20648;-62
2020/12/19 05:44:31;;;;;;;32.70;22.77;;;;;;;;;;2071969;28;20248;-61
2020/12/19 05:45:32;;;;;;;30.60;21.63;;;;;;;;;;2080295;28;20180;-61
2020/12/19 05:46:39;;;;;;;31.40;21.47;;;;;;;;;;2075869;28;20249;-61
2020/12/19 05:47:40;;;;;;;32.63;21.50;;;;;;;;;;2080512;28;20641;-62
2020/12/19 05:48:40;;;;;;;31.03;20.50;;;;;;;;;;2081398;28;20179;-61
2020/12/19 05:49:40;;;;;;;31.83;21.23;;;;;;;;;;2080810;28;20184;-61
2020/12/19 05:50:41;;;;;;;29.47;18.93;;;;;;;;;;2081466;28;20241;-61
2020/12/19 05:51:43;;;;;;;26.90;20.00;;;;;;;;;;2080729;28;20168;-61
2020/12/19 05:52:43;;;;;;;32.20;22.83;;;;;;;;;;2080609;28;20180;-61
2020/12/19 05:53:45;;;;;;;30.23;20.23;;;;;;;;;;2081700;28;20222;-61